Time;durP1;ratioP1;P1;durP2;ratioP2;P2;SDS_P1;SDS_P2;PMS_P1;PMS_P2;Temp;Humidity;BMP_temperature;BMP_pressure;BME280_temperature;BME280_humidity;BME280_pressure;Samples;Min_cycle;Max_cycle;Signal;HPM_P1;HPM_P2
2023/03/24 00:01:26;;;;;;;;;;;14.50;62.70;;;;;;4983882;28;19925;-81
2023/03/24 00:03:52;;;;;;;;;;;14.40;62.70;;;;;;4967769;28;19980;-81
2023/03/24 00:06:17;;;;;;;;;;;14.40;62.50;;;;;;4967171;28;20405;-82
2023/03/24 00:08:46;;;;;;;;;;;14.40;62.60;;;;;;4984982;28;20452;-81
2023/03/24 00:11:13;;;;;;;;;;;14.40;62.60;;;;;;4937333;28;19918;-81
2023/03/24 00:13:40;;;;;;;;;;;14.50;62.80;;;;;;4967227;28;19924;-82
2023/03/24 00:16:08;;;;;;;;;;;14.40;62.60;;;;;;4969317;28;19914;-82
2023/03/24 00:18:35;;;;;;;;;;;14.40;62.80;;;;;;4985387;28;19917;-82
2023/03/24 00:21:02;;;;;;;;;;;14.40;62.60;;;;;;4951801;28;19925;-82
2023/03/24 00:23:31;;;;;;;;;;;14.40;62.50;;;;;;4952431;28;20495;-82
2023/03/24 00:26:01;;;;;;;;;;;14.50;62.70;;;;;;4968382;28;19926;-81
2023/03/24 00:28:28;;;;;;;;;;;14.40;62.60;;;;;;4981065;28;19941;-81
2023/03/24 00:30:54;;;;;;;;;;;14.40;62.60;;;;;;4940490;28;19929;-82
2023/03/24 00:33:20;;;;;;;;;;;14.40;62.60;;;;;;4988610;28;19914;-83
2023/03/24 00:35:47;;;;;;;;;;;14.40;62.60;;;;;;4968383;28;19944;-82
2023/03/24 00:38:13;;;;;;;;;;;14.40;62.60;;;;;;4954907;28;19937;-82
2023/03/24 00:40:43;;;;;;;;;;;14.40;62.70;;;;;;4972721;28;19921;-80
2023/03/24 00:43:12;;;;;;;;;;;14.40;62.70;;;;;;4970538;28;19914;-83
2023/03/24 00:45:44;;;;;;;;;;;14.40;62.70;;;;;;4970279;28;20380;-81
2023/03/24 00:48:14;;;;;;;;;;;14.40;62.70;;;;;;4956779;28;19953;-81
2023/03/24 00:50:44;;;;;;;;;;;14.40;62.80;;;;;;4954915;28;19917;-81
2023/03/24 00:53:10;;;;;;;;;;;14.40;62.80;;;;;;4955745;28;19922;-81
2023/03/24 00:55:36;;;;;;;;;;;14.40;63.40;;;;;;4968464;28;20311;-83
2023/03/24 00:58:03;;;;;;;;;;;14.40;62.90;;;;;;4955566;28;19960;-82
2023/03/24 01:00:29;;;;;;;;;;;14.40;62.90;;;;;;4955836;28;19922;-81
2023/03/24 01:02:55;;;;;;;;;;;14.40;62.90;;;;;;4969511;28;19918;-81
2023/03/24 01:05:23;;;;;;;;;;;14.40;62.90;;;;;;4955660;28;19922;-83
2023/03/24 01:07:51;;;;;;;;;;;14.40;62.90;;;;;;4970685;28;19930;-79
2023/03/24 01:10:20;;;;;;;;;;;14.40;62.90;;;;;;4971328;28;19922;-80
2023/03/24 01:12:46;;;;;;;;;;;14.40;62.90;;;;;;4961997;28;19914;-80
2023/03/24 01:15:15;;;;;;;;;;;14.40;62.90;;;;;;4987875;28;19925;-81
2023/03/24 01:17:40;;;;;;;;;;;14.40;62.90;;;;;;4968149;28;20037;-83
2023/03/24 01:20:09;;;;;;;;;;;14.40;62.90;;;;;;4939954;28;19961;-80
2023/03/24 01:22:36;;;;;;;;;;;14.40;62.90;;;;;;4938809;28;19924;-82
2023/03/24 01:25:03;;;;;;;;;;;14.40;62.90;;;;;;4968367;28;20373;-82
2023/03/24 01:27:30;;;;;;;;;;;14.40;63.00;;;;;;4938202;28;20289;-82
2023/03/24 01:29:59;;;;;;;;;;;14.40;63.10;;;;;;4937901;28;20083;-79
2023/03/24 01:32:25;;;;;;;;;;;14.40;63.10;;;;;;4968840;28;19926;-78
2023/03/24 01:34:51;;;;;;;;;;;14.40;63.20;;;;;;4971202;28;19972;-81
2023/03/24 01:37:17;;;;;;;;;;;14.40;63.10;;;;;;4985543;28;19924;-80
2023/03/24 01:39:43;;;;;;;;;;;14.40;63.10;;;;;;4968964;28;20016;-80
2023/03/24 01:42:19;;;;;;;;;;;14.40;63.10;;;;;;4969621;28;19922;-80
2023/03/24 01:44:50;;;;;;;;;;;14.40;63.10;;;;;;4923763;28;20626;-80
2023/03/24 01:47:16;;;;;;;;;;;14.40;63.00;;;;;;4953827;28;19918;-81
2023/03/24 01:49:42;;;;;;;;;;;14.40;63.00;;;;;;4986159;28;20428;-82
2023/03/24 01:52:14;;;;;;;;;;;14.40;63.00;;;;;;4970121;28;19914;-82
2023/03/24 01:54:46;;;;;;;;;;;14.40;63.00;;;;;;4955116;28;20377;-82
2023/03/24 01:57:20;;;;;;;;;;;14.40;63.00;;;;;;4970075;28;20195;-82
2023/03/24 01:59:48;;;;;;;;;;;14.40;62.90;;;;;;4937843;28;19929;-82
2023/03/24 02:02:21;;;;;;;;;;;14.40;63.00;;;;;;4985438;28;19957;-82
2023/03/24 02:04:57;;;;;;;;;;;14.40;63.00;;;;;;4953467;28;19922;-82
2023/03/24 02:07:34;;;;;;;;;;;14.40;63.10;;;;;;4968405;28;20453;-82
2023/03/24 02:10:03;;;;;;;;;;;14.40;63.00;;;;;;4953499;28;19914;-82
2023/03/24 02:12:31;;;;;;;;;;;14.40;63.00;;;;;;4954170;28;19921;-81
2023/03/24 02:14:57;;;;;;;;;;;14.40;63.00;;;;;;4970023;28;20008;-80
2023/03/24 02:17:44;;;;;;;;;;;14.40;63.00;;;;;;4954743;28;19922;-80
2023/03/24 02:20:13;;;;;;;;;;;14.40;63.00;;;;;;4937716;28;19925;-82
2023/03/24 02:22:55;;;;;;;;;;;14.40;63.00;;;;;;4953181;28;21363;-78
2023/03/24 02:25:21;;;;;;;;;;;14.40;63.10;;;;;;4967836;28;19926;-81
2023/03/24 02:27:47;;;;;;;;;;;14.40;63.00;;;;;;4969994;28;19921;-81
2023/03/24 02:30:13;;;;;;;;;;;14.40;63.00;;;;;;4969247;28;19930;-81
2023/03/24 02:33:03;;;;;;;;;;;14.40;63.00;;;;;;4937023;28;19921;-83
2023/03/24 02:35:52;;;;;;;;;;;14.30;63.00;;;;;;4931369;28;19918;-84
2023/03/24 02:38:38;;;;;;;;;;;14.40;63.10;;;;;;4961895;28;19925;-83
2023/03/24 02:41:14;;;;;;;;;;;14.30;63.10;;;;;;4969336;28;19961;-86
2023/03/24 02:43:47;;;;;;;;;;;14.40;63.20;;;;;;4968777;28;20021;-81
2023/03/24 02:46:22;;;;;;;;;;;14.40;63.30;;;;;;4955512;28;19965;-83
2023/03/24 02:49:05;;;;;;;;;;;14.40;63.30;;;;;;4953636;28;19920;-82
2023/03/24 02:51:40;;;;;;;;;;;14.40;63.40;;;;;;4969955;28;19945;-85
2023/03/24 02:54:09;;;;;;;;;;;14.30;63.40;;;;;;4980681;28;20009;-82
2023/03/24 02:56:43;;;;;;;;;;;14.40;63.40;;;;;;4938981;28;19965;-81
2023/03/24 02:59:29;;;;;;;;;;;14.30;63.40;;;;;;4952755;28;20834;-80
2023/03/24 03:01:59;;;;;;;;;;;14.30;63.40;;;;;;4952649;28;19925;-82
2023/03/24 03:04:48;;;;;;;;;;;14.30;63.40;;;;;;4952047;28;19930;-81
2023/03/24 03:07:20;;;;;;;;;;;14.30;63.40;;;;;;4968657;28;19918;-82
2023/03/24 03:09:50;;;;;;;;;;;14.30;63.40;;;;;;4969845;28;19921;-82
2023/03/24 03:12:18;;;;;;;;;;;14.30;63.40;;;;;;4948070;28;20412;-80
2023/03/24 03:14:46;;;;;;;;;;;14.30;63.40;;;;;;4952727;28;19938;-83
2023/03/24 03:17:17;;;;;;;;;;;14.30;63.40;;;;;;4969241;28;19918;-82
2023/03/24 03:19:46;;;;;;;;;;;14.30;63.40;;;;;;4937219;28;19924;-82
2023/03/24 03:22:15;;;;;;;;;;;14.30;63.40;;;;;;4915373;28;19973;-81
2023/03/24 03:24:42;;;;;;;;;;;14.30;63.50;;;;;;4969553;28;19945;-81
2023/03/24 03:27:25;;;;;;;;;;;14.30;63.50;;;;;;4950478;28;19961;-80
2023/03/24 03:29:59;;;;;;;;;;;14.30;63.50;;;;;;4952457;28;19932;-81
2023/03/24 03:32:28;;;;;;;;;;;14.30;63.50;;;;;;4983947;28;20012;-80
2023/03/24 03:35:13;;;;;;;;;;;14.30;63.60;;;;;;4937602;28;19922;-81
2023/03/24 03:37:49;;;;;;;;;;;14.30;63.60;;;;;;4981657;28;20005;-79
2023/03/24 03:40:37;;;;;;;;;;;14.30;63.60;;;;;;4978880;28;19926;-81
2023/03/24 03:43:11;;;;;;;;;;;14.30;63.60;;;;;;4967376;28;19914;-83
2023/03/24 03:45:37;;;;;;;;;;;14.30;63.60;;;;;;4985071;28;19918;-82
2023/03/24 03:48:03;;;;;;;;;;;14.30;63.60;;;;;;4952280;28;20064;-85
2023/03/24 03:50:30;;;;;;;;;;;14.40;63.60;;;;;;4955232;28;19918;-88
2023/03/24 03:53:01;;;;;;;;;;;14.30;63.60;;;;;;4953298;28;20303;-83
2023/03/24 03:55:27;;;;;;;;;;;14.30;63.60;;;;;;4969281;28;19925;-86
2023/03/24 03:57:53;;;;;;;;;;;14.40;63.80;;;;;;4952353;28;20348;-85
2023/03/24 04:00:35;;;;;;;;;;;14.40;63.70;;;;;;4940848;28;19914;-88
2023/03/24 04:03:28;;;;;;;;;;;14.40;63.80;;;;;;4963970;28;19925;-87
2023/03/24 04:06:12;;;;;;;;;;;14.40;63.90;;;;;;4940620;28;20358;-87
2023/03/24 04:08:48;;;;;;;;;;;14.40;64.00;;;;;;4971826;28;19918;-85
2023/03/24 04:11:39;;;;;;;;;;;14.40;64.20;;;;;;4973600;28;19922;-85
2023/03/24 04:14:08;;;;;;;;;;;14.40;64.50;;;;;;4989617;28;20393;-86
2023/03/24 04:16:49;;;;;;;;;;;14.40;64.70;;;;;;4938046;28;19933;-87
2023/03/24 04:19:32;;;;;;;;;;;14.40;64.80;;;;;;4943551;28;19918;-87
2023/03/24 04:22:17;;;;;;;;;;;14.40;65.00;;;;;;4989146;28;19914;-84
2023/03/24 04:24:50;;;;;;;;;;;14.40;65.20;;;;;;4957000;28;19922;-84
2023/03/24 04:27:28;;;;;;;;;;;14.40;65.30;;;;;;4940195;28;21380;-86
2023/03/24 04:30:05;;;;;;;;;;;14.40;65.60;;;;;;4956511;28;19930;-87
2023/03/24 04:32:50;;;;;;;;;;;14.40;65.70;;;;;;4988920;28;19937;-88
2023/03/24 04:35:35;;;;;;;;;;;14.40;65.80;;;;;;4978510;28;19976;-80
2023/03/24 04:38:17;;;;;;;;;;;14.40;66.00;;;;;;4982957;28;20266;-79
2023/03/24 04:40:54;;;;;;;;;;;14.40;66.10;;;;;;4971371;28;19918;-80
2023/03/24 04:43:23;;;;;;;;;;;14.40;66.30;;;;;;4970901;28;19985;-77
2023/03/24 04:45:51;;;;;;;;;;;14.40;66.60;;;;;;4940697;28;19918;-79
2023/03/24 04:48:31;;;;;;;;;;;14.40;66.80;;;;;;4966346;28;19925;-78
2023/03/24 04:51:10;;;;;;;;;;;14.40;67.00;;;;;;4959100;28;19918;-78
2023/03/24 04:54:11;;;;;;;;;;;14.40;67.40;;;;;;4955266;28;20352;-78
2023/03/24 04:56:52;;;;;;;;;;;14.40;67.70;;;;;;4955313;28;19929;-76
2023/03/24 04:59:41;;;;;;;;;;;14.40;67.90;;;;;;4960641;28;19976;-75
2023/03/24 05:02:09;;;;;;;;;;;14.40;68.30;;;;;;4984685;28;19918;-76
2023/03/24 05:04:57;;;;;;;;;;;14.40;68.60;;;;;;4955068;28;20001;-76
2023/03/24 05:07:32;;;;;;;;;;;14.40;68.80;;;;;;4938581;28;19925;-76
2023/03/24 05:10:01;;;;;;;;;;;14.40;68.90;;;;;;4987473;28;21451;-76
2023/03/24 05:12:28;;;;;;;;;;;14.40;69.10;;;;;;4970441;28;19918;-76
2023/03/24 05:15:14;;;;;;;;;;;14.40;69.30;;;;;;4965117;28;20649;-76
2023/03/24 05:17:41;;;;;;;;;;;14.40;69.50;;;;;;4967467;28;20364;-76
2023/03/24 05:20:10;;;;;;;;;;;14.40;69.60;;;;;;4954264;28;19917;-77
2023/03/24 05:22:38;;;;;;;;;;;14.40;69.70;;;;;;4953787;28;20327;-76
2023/03/24 05:25:04;;;;;;;;;;;14.40;69.80;;;;;;4955138;28;20020;-77
2023/03/24 05:27:30;;;;;;;;;;;14.40;69.90;;;;;;4954373;28;20382;-76
2023/03/24 05:30:00;;;;;;;;;;;14.40;69.80;;;;;;4938005;28;19930;-76
2023/03/24 05:32:31;;;;;;;;;;;14.40;69.90;;;;;;4986173;28;19965;-77
2023/03/24 05:34:59;;;;;;;;;;;14.40;69.90;;;;;;4969627;28;19918;-77
2023/03/24 05:37:30;;;;;;;;;;;14.40;69.90;;;;;;4953685;28;19917;-77
2023/03/24 05:39:56;;;;;;;;;;;14.40;69.90;;;;;;4987593;28;19922;-76
2023/03/24 05:42:44;;;;;;;;;;;14.40;70.00;;;;;;4971544;28;19933;-76
2023/03/24 05:45:12;;;;;;;;;;;14.40;70.00;;;;;;4986885;28;19928;-76
2023/03/24 05:47:39;;;;;;;;;;;14.40;70.00;;;;;;4966766;28;19953;-76
2023/03/24 05:50:05;;;;;;;;;;;14.40;70.00;;;;;;4938418;28;19953;-77
2023/03/24 05:52:32;;;;;;;;;;;14.40;70.00;;;;;;4970583;28;19918;-76
2023/03/24 05:55:14;;;;;;;;;;;14.40;70.10;;;;;;4970521;28;19924;-75
2023/03/24 05:57:42;;;;;;;;;;;14.40;70.20;;;;;;4954497;28;21184;-72
2023/03/24 06:00:40;;;;;;;;;;;14.50;71.40;;;;;;4949160;28;20061;-71
2023/03/24 06:03:15;;;;;;;;;;;14.50;72.40;;;;;;4953836;28;20124;-71
2023/03/24 06:05:59;;;;;;;;;;;14.50;72.20;;;;;;4967505;28;19922;-73
2023/03/24 06:08:27;;;;;;;;;;;14.50;72.80;;;;;;4951820;28;19944;-73
2023/03/24 06:10:59;;;;;;;;;;;14.60;72.30;;;;;;4936734;28;20412;-72
2023/03/24 06:13:25;;;;;;;;;;;14.60;72.50;;;;;;4952951;28;19922;-73
2023/03/24 06:15:53;;;;;;;;;;;14.70;72.60;;;;;;4953796;28;19920;-73
2023/03/24 06:18:34;;;;;;;;;;;14.70;72.60;;;;;;4953940;28;19925;-73
2023/03/24 06:21:09;;;;;;;;;;;14.80;72.50;;;;;;4953157;28;19918;-73
2023/03/24 06:23:35;;;;;;;;;;;14.80;72.40;;;;;;4952482;28;20020;-73
2023/03/24 06:26:10;;;;;;;;;;;14.80;72.40;;;;;;4952373;28;19921;-72
2023/03/24 06:28:44;;;;;;;;;;;14.90;72.40;;;;;;4951637;28;19921;-72
2023/03/24 06:31:17;;;;;;;;;;;15.00;72.20;;;;;;4984326;28;19959;-72
2023/03/24 06:33:43;;;;;;;;;;;14.90;72.20;;;;;;4970102;28;20373;-73
2023/03/24 06:36:10;;;;;;;;;;;15.00;72.00;;;;;;4970515;28;19964;-73
2023/03/24 06:38:36;;;;;;;;;;;15.00;72.00;;;;;;4952614;28;19917;-72
2023/03/24 06:41:04;;;;;;;;;;;15.00;71.80;;;;;;4984394;28;19929;-73
2023/03/24 06:43:30;;;;;;;;;;;15.00;71.70;;;;;;4968855;28;19917;-73
2023/03/24 06:45:57;;;;;;;;;;;15.10;71.70;;;;;;4985818;28;19922;-73
2023/03/24 06:48:24;;;;;;;;;;;15.10;71.60;;;;;;4968449;28;19918;-73
2023/03/24 06:50:54;;;;;;;;;;;15.10;71.60;;;;;;4969707;28;20046;-73
2023/03/24 06:53:20;;;;;;;;;;;15.10;71.40;;;;;;4969521;28;19918;-73
2023/03/24 06:55:49;;;;;;;;;;;15.20;71.50;;;;;;4969973;28;19921;-71
2023/03/24 06:58:17;;;;;;;;;;;15.20;71.40;;;;;;4952932;28;19925;-73
2023/03/24 07:01:02;;;;;;;;;;;15.20;71.30;;;;;;4970867;28;19936;-72
2023/03/24 07:03:33;;;;;;;;;;;15.20;71.30;;;;;;4970331;28;19953;-72
2023/03/24 07:06:19;;;;;;;;;;;15.20;71.20;;;;;;4920490;29;20103;-73
2023/03/24 07:08:50;;;;;;;;;;;15.20;71.70;;;;;;4909348;29;19926;-73
2023/03/24 07:11:17;;;;;;;;;;;15.20;71.00;;;;;;4906059;29;20430;-73
2023/03/24 07:13:52;;;;;;;;;;;15.30;71.00;;;;;;4916946;29;20409;-73
2023/03/24 07:16:18;;;;;;;;;;;15.30;70.90;;;;;;4889342;29;19918;-73
2023/03/24 07:18:50;;;;;;;;;;;15.30;70.80;;;;;;4919844;29;19914;-73
2023/03/24 07:21:17;;;;;;;;;;;15.30;70.80;;;;;;4908504;29;19919;-73
2023/03/24 07:23:44;;;;;;;;;;;15.30;70.70;;;;;;4920589;29;19945;-73
2023/03/24 07:26:15;;;;;;;;;;;15.40;70.70;;;;;;4906850;29;20302;-72
2023/03/24 07:28:47;;;;;;;;;;;15.40;70.70;;;;;;4920740;29;19922;-72
2023/03/24 07:31:23;;;;;;;;;;;15.40;70.60;;;;;;4908702;29;19941;-72
2023/03/24 07:33:56;;;;;;;;;;;15.40;70.60;;;;;;4920591;29;19926;-72
2023/03/24 07:36:22;;;;;;;;;;;15.50;70.50;;;;;;4908667;29;20446;-73
2023/03/24 07:38:48;;;;;;;;;;;15.40;70.40;;;;;;4923086;29;19974;-72
2023/03/24 07:41:23;;;;;;;;;;;15.40;70.30;;;;;;4908146;29;19930;-72
2023/03/24 07:43:54;;;;;;;;;;;15.50;70.30;;;;;;4930164;29;19926;-73
2023/03/24 07:46:23;;;;;;;;;;;15.50;70.30;;;;;;4944990;29;19922;-73
2023/03/24 07:48:49;;;;;;;;;;;15.40;70.10;;;;;;4931161;29;19921;-72
2023/03/24 07:51:18;;;;;;;;;;;15.50;69.90;;;;;;4958668;28;20012;-72
2023/03/24 07:54:08;;;;;;;;;;;15.50;69.70;;;;;;4929486;28;19922;-72
2023/03/24 07:56:42;;;;;;;;;;;15.50;69.60;;;;;;4929705;29;19945;-72
2023/03/24 07:59:10;;;;;;;;;;;15.50;69.60;;;;;;4958545;28;19918;-72
2023/03/24 08:01:56;;;;;;;;;;;15.50;69.60;;;;;;4935812;29;19977;-77
2023/03/24 08:04:33;;;;;;;;;;;15.40;69.50;;;;;;4957342;28;20380;-78
2023/03/24 08:07:04;;;;;;;;;;;15.40;68.70;;;;;;4947994;29;19921;-77
2023/03/24 08:09:30;;;;;;;;;;;15.40;68.30;;;;;;4947982;29;19938;-78
2023/03/24 08:11:58;;;;;;;;;;;15.30;68.10;;;;;;4946522;29;19945;-78
2023/03/24 08:14:24;;;;;;;;;;;15.30;68.10;;;;;;4946116;29;20452;-77
2023/03/24 08:16:50;;;;;;;;;;;15.20;68.00;;;;;;4947211;29;19918;-77
2023/03/24 08:19:16;;;;;;;;;;;15.20;68.10;;;;;;4928833;29;19965;-77
2023/03/24 08:21:42;;;;;;;;;;;15.10;68.10;;;;;;4947616;29;19922;-77
2023/03/24 08:24:08;;;;;;;;;;;15.10;68.10;;;;;;4952554;28;19918;-76
2023/03/24 08:26:34;;;;;;;;;;;15.00;68.10;;;;;;4945998;29;19985;-76
2023/03/24 08:29:00;;;;;;;;;;;15.00;68.20;;;;;;4945166;29;19977;-77
2023/03/24 08:31:32;;;;;;;;;;;15.00;68.30;;;;;;4965310;28;19926;-76
2023/03/24 08:33:58;;;;;;;;;;;15.00;68.30;;;;;;4952118;28;19918;-77
2023/03/24 08:36:25;;;;;;;;;;;14.90;68.30;;;;;;4966790;28;19914;-76
2023/03/24 08:38:53;;;;;;;;;;;14.90;68.50;;;;;;4965786;28;20283;-76
2023/03/24 08:41:19;;;;;;;;;;;14.90;68.60;;;;;;4965929;28;19925;-76
2023/03/24 08:43:45;;;;;;;;;;;14.90;68.80;;;;;;4942689;28;19917;-76
2023/03/24 08:46:11;;;;;;;;;;;14.80;68.80;;;;;;4966776;28;19924;-77
2023/03/24 08:48:39;;;;;;;;;;;14.80;68.80;;;;;;4987482;28;19913;-76
2023/03/24 08:51:09;;;;;;;;;;;14.80;68.80;;;;;;4969346;28;19918;-76
2023/03/24 08:53:35;;;;;;;;;;;14.70;69.00;;;;;;4954004;28;19940;-76
2023/03/24 08:56:01;;;;;;;;;;;14.70;69.00;;;;;;4953956;28;20433;-76
2023/03/24 08:58:27;;;;;;;;;;;14.70;69.00;;;;;;4968450;28;19922;-76
2023/03/24 09:00:53;;;;;;;;;;;14.70;69.20;;;;;;4940201;28;19914;-77
2023/03/24 09:03:20;;;;;;;;;;;14.60;69.20;;;;;;4953492;28;20404;-77
2023/03/24 09:05:47;;;;;;;;;;;14.60;69.30;;;;;;4954842;28;19925;-77
2023/03/24 09:08:15;;;;;;;;;;;14.60;69.30;;;;;;4968942;28;20024;-77
2023/03/24 09:10:41;;;;;;;;;;;14.60;69.50;;;;;;4968753;28;19925;-77
2023/03/24 09:13:10;;;;;;;;;;;14.60;69.60;;;;;;4954755;28;20393;-76
2023/03/24 09:15:36;;;;;;;;;;;14.60;70.10;;;;;;4968273;28;19910;-76
2023/03/24 09:18:02;;;;;;;;;;;14.60;69.90;;;;;;4953679;28;19922;-76
2023/03/24 09:20:28;;;;;;;;;;;14.50;69.80;;;;;;4968441;28;19949;-76
2023/03/24 09:22:54;;;;;;;;;;;14.50;69.70;;;;;;4968561;28;19922;-76
2023/03/24 09:25:20;;;;;;;;;;;14.50;69.70;;;;;;4968275;28;20128;-77
2023/03/24 09:27:46;;;;;;;;;;;14.50;69.70;;;;;;4968568;28;20397;-76
2023/03/24 09:30:13;;;;;;;;;;;14.50;69.80;;;;;;4968151;28;19981;-77
2023/03/24 09:32:40;;;;;;;;;;;14.50;70.00;;;;;;4968462;28;20366;-77
2023/03/24 09:35:07;;;;;;;;;;;14.50;70.10;;;;;;4953634;28;20000;-76
2023/03/24 09:37:33;;;;;;;;;;;14.40;70.00;;;;;;4968200;28;19961;-75
2023/03/24 09:40:00;;;;;;;;;;;14.40;70.00;;;;;;4967795;28;20392;-76
2023/03/24 09:42:29;;;;;;;;;;;14.50;70.10;;;;;;4969389;28;19914;-76
2023/03/24 09:44:58;;;;;;;;;;;14.40;70.40;;;;;;4967552;28;19926;-76
2023/03/24 09:47:32;;;;;;;;;;;14.40;70.40;;;;;;4967914;28;19922;-76
2023/03/24 09:50:05;;;;;;;;;;;14.40;70.30;;;;;;4967894;28;19922;-75
2023/03/24 09:52:34;;;;;;;;;;;14.40;70.30;;;;;;4953721;28;19917;-75
2023/03/24 09:55:01;;;;;;;;;;;14.40;70.60;;;;;;4955285;28;19921;-75
2023/03/24 09:57:36;;;;;;;;;;;14.40;70.60;;;;;;4954128;28;19910;-75
2023/03/24 10:00:22;;;;;;;;;;;14.30;70.20;;;;;;4967629;28;20694;-77
2023/03/24 10:02:49;;;;;;;;;;;14.30;70.30;;;;;;4985871;28;20313;-77
2023/03/24 10:05:16;;;;;;;;;;;14.30;70.30;;;;;;4967550;28;19926;-77
2023/03/24 10:08:02;;;;;;;;;;;14.30;70.90;;;;;;4984945;28;19918;-78
2023/03/24 10:10:31;;;;;;;;;;;14.30;70.80;;;;;;4953961;28;19933;-77
2023/03/24 10:13:03;;;;;;;;;;;14.30;70.70;;;;;;4971392;28;19914;-75
2023/03/24 10:15:33;;;;;;;;;;;14.30;70.80;;;;;;4973398;28;19996;-76
2023/03/24 10:18:22;;;;;;;;;;;14.30;71.60;;;;;;4971629;28;19918;-78
2023/03/24 10:20:51;;;;;;;;;;;14.30;71.30;;;;;;4951629;28;20005;-76
2023/03/24 10:23:21;;;;;;;;;;;14.30;70.90;;;;;;4949364;28;19972;-78
2023/03/24 10:26:04;;;;;;;;;;;14.20;70.70;;;;;;4954155;28;19925;-78
2023/03/24 10:28:36;;;;;;;;;;;14.20;70.60;;;;;;4952881;28;20323;-77
2023/03/24 10:31:03;;;;;;;;;;;14.20;70.60;;;;;;4952452;28;20040;-75
2023/03/24 10:33:30;;;;;;;;;;;14.20;70.70;;;;;;4967701;28;19997;-76
2023/03/24 10:36:00;;;;;;;;;;;14.20;70.70;;;;;;4966380;28;20500;-76
2023/03/24 10:38:26;;;;;;;;;;;14.20;70.80;;;;;;4965894;28;20320;-76
2023/03/24 10:40:53;;;;;;;;;;;14.20;70.70;;;;;;4968546;28;19924;-76
2023/03/24 10:43:20;;;;;;;;;;;14.20;71.10;;;;;;4984133;28;19969;-76
2023/03/24 10:45:48;;;;;;;;;;;14.20;71.00;;;;;;4967967;28;19961;-76
2023/03/24 10:48:32;;;;;;;;;;;14.10;70.80;;;;;;4984305;28;19929;-75
2023/03/24 10:50:58;;;;;;;;;;;14.10;70.90;;;;;;4966658;28;20018;-76
2023/03/24 10:53:24;;;;;;;;;;;14.10;70.80;;;;;;4966292;28;20107;-77
2023/03/24 10:55:50;;;;;;;;;;;14.10;70.90;;;;;;4967295;28;20005;-76
2023/03/24 10:58:36;;;;;;;;;;;14.10;71.00;;;;;;4966855;28;19917;-78
2023/03/24 11:01:02;;;;;;;;;;;14.10;71.00;;;;;;4937429;28;19977;-76
2023/03/24 11:03:31;;;;;;;;;;;14.10;70.80;;;;;;4966863;28;19973;-76
2023/03/24 11:06:01;;;;;;;;;;;14.00;70.70;;;;;;4966365;28;19929;-76
2023/03/24 11:08:27;;;;;;;;;;;14.00;70.90;;;;;;4967375;28;20360;-76
2023/03/24 11:10:54;;;;;;;;;;;14.00;70.80;;;;;;4967078;28;20207;-76
2023/03/24 11:13:24;;;;;;;;;;;14.00;70.70;;;;;;4968214;28;19918;-75
2023/03/24 11:16:02;;;;;;;;;;;14.00;70.70;;;;;;4952294;28;20389;-75
2023/03/24 11:18:28;;;;;;;;;;;14.00;70.60;;;;;;4966287;28;19918;-76
2023/03/24 11:20:59;;;;;;;;;;;14.00;70.60;;;;;;4967089;28;19929;-76
2023/03/24 11:23:28;;;;;;;;;;;14.00;70.50;;;;;;4966198;28;19924;-77
2023/03/24 11:26:21;;;;;;;;;;;14.00;70.50;;;;;;4964506;28;20020;-75
2023/03/24 11:28:56;;;;;;;;;;;14.00;70.50;;;;;;4964181;28;20472;-76
2023/03/24 11:31:29;;;;;;;;;;;14.00;70.40;;;;;;4966112;28;19926;-76
2023/03/24 11:33:55;;;;;;;;;;;13.90;70.20;;;;;;4983949;28;20978;-76
2023/03/24 11:36:31;;;;;;;;;;;13.90;70.30;;;;;;4952700;28;19949;-77
2023/03/24 11:39:21;;;;;;;;;;;13.90;70.30;;;;;;4983329;28;19918;-78
2023/03/24 11:41:51;;;;;;;;;;;14.00;70.40;;;;;;4975511;28;19961;-78
2023/03/24 11:44:19;;;;;;;;;;;13.90;70.20;;;;;;4951380;28;19918;-76
2023/03/24 11:46:51;;;;;;;;;;;13.90;70.20;;;;;;4965609;28;20262;-75
2023/03/24 11:49:18;;;;;;;;;;;13.90;70.10;;;;;;4965433;28;20393;-75
2023/03/24 11:51:46;;;;;;;;;;;13.90;70.20;;;;;;4966050;28;20321;-76
2023/03/24 11:54:13;;;;;;;;;;;14.00;70.30;;;;;;4965112;28;19925;-77
2023/03/24 11:56:45;;;;;;;;;;;13.90;70.10;;;;;;4965973;28;20022;-78
2023/03/24 11:59:22;;;;;;;;;;;13.90;70.00;;;;;;4966467;28;20399;-79
2023/03/24 12:01:58;;;;;;;;;;;13.90;70.00;;;;;;4965801;28;20012;-76
2023/03/24 12:04:42;;;;;;;;;;;13.90;70.10;;;;;;4935704;28;19918;-76
2023/03/24 12:07:27;;;;;;;;;;;13.90;70.00;;;;;;4965731;28;19918;-76
2023/03/24 12:10:12;;;;;;;;;;;13.90;69.90;;;;;;4967633;28;20448;-76
2023/03/24 12:12:56;;;;;;;;;;;13.90;69.90;;;;;;4983577;28;20344;-76
2023/03/24 12:15:25;;;;;;;;;;;13.90;69.80;;;;;;4965544;28;19918;-76
2023/03/24 12:17:59;;;;;;;;;;;13.90;69.90;;;;;;4983914;28;19965;-76
2023/03/24 12:20:25;;;;;;;;;;;13.90;70.10;;;;;;4966961;28;19973;-76
2023/03/24 12:23:00;;;;;;;;;;;14.00;70.00;;;;;;4956625;28;19918;-76
2023/03/24 12:25:41;;;;;;;;;;;14.00;70.00;;;;;;4969538;28;19969;-76
2023/03/24 12:28:09;;;;;;;;;;;14.00;69.90;;;;;;4954793;28;20262;-76
2023/03/24 12:30:44;;;;;;;;;;;14.00;69.80;;;;;;4955172;28;19981;-76
2023/03/24 12:33:20;;;;;;;;;;;14.00;69.80;;;;;;4954077;28;20032;-77
2023/03/24 12:35:50;;;;;;;;;;;14.00;69.70;;;;;;4969353;28;19949;-76
2023/03/24 12:38:34;;;;;;;;;;;14.00;69.40;;;;;;4968977;28;19922;-76
2023/03/24 12:41:19;;;;;;;;;;;14.00;69.60;;;;;;4956098;28;19977;-76
2023/03/24 12:43:57;;;;;;;;;;;14.00;69.70;;;;;;4970796;28;19957;-75
2023/03/24 12:46:29;;;;;;;;;;;14.00;69.50;;;;;;4969070;28;19922;-75
2023/03/24 12:48:55;;;;;;;;;;;14.00;69.40;;;;;;4969062;28;19918;-75
2023/03/24 12:51:41;;;;;;;;;;;14.00;69.60;;;;;;4956043;28;19910;-74
2023/03/24 12:54:13;;;;;;;;;;;14.00;69.50;;;;;;4954579;28;20311;-75
2023/03/24 12:56:46;;;;;;;;;;;14.00;69.40;;;;;;4968608;28;19968;-75
2023/03/24 12:59:30;;;;;;;;;;;14.00;69.40;;;;;;4968953;28;19918;-77
2023/03/24 13:02:09;;;;;;;;;;;14.10;69.20;;;;;;4968057;28;19922;-75
2023/03/24 13:04:37;;;;;;;;;;;14.10;69.10;;;;;;4953541;28;19958;-77
2023/03/24 13:07:10;;;;;;;;;;;14.10;69.20;;;;;;4986395;28;19920;-76
2023/03/24 13:09:40;;;;;;;;;;;14.10;69.00;;;;;;4968898;28;19922;-76
2023/03/24 13:12:12;;;;;;;;;;;14.00;68.70;;;;;;4969054;28;20018;-77
2023/03/24 13:14:47;;;;;;;;;;;14.00;68.60;;;;;;4968093;28;19941;-76
2023/03/24 13:17:16;;;;;;;;;;;14.10;68.50;;;;;;4977406;28;19969;-77
2023/03/24 13:19:42;;;;;;;;;;;14.10;68.40;;;;;;4969084;28;19918;-77
2023/03/24 13:22:14;;;;;;;;;;;14.00;68.50;;;;;;4954105;28;19918;-77
2023/03/24 13:24:40;;;;;;;;;;;14.10;68.40;;;;;;4971099;28;20026;-77
2023/03/24 13:27:25;;;;;;;;;;;14.10;68.20;;;;;;4963340;28;20153;-75
2023/03/24 13:30:06;;;;;;;;;;;14.10;68.20;;;;;;4970015;28;19961;-75
2023/03/24 13:32:37;;;;;;;;;;;14.10;68.30;;;;;;4970857;28;19964;-77
2023/03/24 13:35:18;;;;;;;;;;;14.10;68.10;;;;;;4970230;28;20037;-76
2023/03/24 13:37:44;;;;;;;;;;;14.10;68.10;;;;;;4953273;28;19917;-77
2023/03/24 13:40:17;;;;;;;;;;;14.10;68.00;;;;;;4954079;28;19914;-76
2023/03/24 13:42:46;;;;;;;;;;;14.10;68.00;;;;;;4968335;28;20412;-74
2023/03/24 13:45:46;;;;;;;;;;;14.00;67.90;;;;;;4968185;28;19922;-75
2023/03/24 13:48:12;;;;;;;;;;;14.10;68.00;;;;;;4889577;29;19919;-75
2023/03/24 13:50:46;;;;;;;;;;;14.00;67.80;;;;;;4888930;29;20499;-76
2023/03/24 13:53:13;;;;;;;;;;;14.10;67.70;;;;;;4889406;29;19919;-75
2023/03/24 13:55:43;;;;;;;;;;;14.10;67.80;;;;;;4888224;29;19923;-75
2023/03/24 13:58:16;;;;;;;;;;;14.00;67.70;;;;;;4889738;29;19915;-75
2023/03/24 14:01:11;;;;;;;;;;;14.00;67.60;;;;;;4889659;29;20044;-77
2023/03/24 14:03:42;;;;;;;;;;;14.00;67.50;;;;;;4880835;29;19954;-77
2023/03/24 14:06:08;;;;;;;;;;;14.00;67.40;;;;;;4889170;29;20032;-76
2023/03/24 14:08:39;;;;;;;;;;;14.00;67.40;;;;;;4888719;29;20466;-76
2023/03/24 14:11:25;;;;;;;;;;;14.00;67.30;;;;;;4888417;29;19923;-75
2023/03/24 14:13:51;;;;;;;;;;;14.10;67.20;;;;;;4888850;29;19930;-77
2023/03/24 14:16:32;;;;;;;;;;;14.00;67.20;;;;;;4888720;29;19923;-75
2023/03/24 14:19:08;;;;;;;;;;;14.10;67.10;;;;;;4888593;29;20258;-77
2023/03/24 14:21:36;;;;;;;;;;;14.00;67.00;;;;;;4889208;29;20037;-75
2023/03/24 14:24:13;;;;;;;;;;;14.00;66.80;;;;;;4936350;28;20403;-75
2023/03/24 14:26:39;;;;;;;;;;;14.00;66.70;;;;;;4966845;28;20398;-76
2023/03/24 14:29:25;;;;;;;;;;;14.00;66.80;;;;;;4985419;28;19924;-76
2023/03/24 14:31:57;;;;;;;;;;;14.00;66.70;;;;;;4967424;28;19977;-76
2023/03/24 14:34:24;;;;;;;;;;;14.00;66.80;;;;;;4985894;28;19973;-76
2023/03/24 14:37:00;;;;;;;;;;;14.00;66.70;;;;;;4967644;28;20383;-76
2023/03/24 14:39:32;;;;;;;;;;;14.00;66.90;;;;;;4968367;28;19917;-75
2023/03/24 14:41:58;;;;;;;;;;;14.00;67.00;;;;;;4952139;28;19918;-74
2023/03/24 14:44:42;;;;;;;;;;;14.00;67.00;;;;;;4965674;28;20200;-75